sensor_id;sensor_type;location;lat;lon;timestamp;pressure;altitude;pressure_sealevel;temperature;humidity
74905;BME280;63465;50.862;6.220;2022-12-18T00:02:06;101056.34;;;-6.49;75.04
74905;BME280;63465;50.862;6.220;2022-12-18T00:04:33;101050.59;;;-6.42;74.92
74905;BME280;63465;50.862;6.220;2022-12-18T00:07:01;101045.72;;;-6.34;74.94
74905;BME280;63465;50.862;6.220;2022-12-18T00:09:28;101051.50;;;-6.41;75.53
74905;BME280;63465;50.862;6.220;2022-12-18T00:11:54;101041.66;;;-6.50;75.77
74905;BME280;63465;50.862;6.220;2022-12-18T00:14:22;101047.13;;;-6.42;75.14
74905;BME280;63465;50.862;6.220;2022-12-18T00:16:49;101053.94;;;-6.44;74.79
74905;BME280;63465;50.862;6.220;2022-12-18T00:19:15;101055.63;;;-6.45;75.35
74905;BME280;63465;50.862;6.220;2022-12-18T00:21:43;101048.19;;;-6.58;76.40
74905;BME280;63465;50.862;6.220;2022-12-18T00:24:11;101048.94;;;-6.61;76.64
74905;BME280;63465;50.862;6.220;2022-12-18T00:26:39;101054.09;;;-6.61;76.79
74905;BME280;63465;50.862;6.220;2022-12-18T00:29:07;101050.34;;;-6.48;76.14
74905;BME280;63465;50.862;6.220;2022-12-18T00:31:34;101062.00;;;-6.37;75.50
74905;BME280;63465;50.862;6.220;2022-12-18T00:34:02;101062.44;;;-6.26;75.48
74905;BME280;63465;50.862;6.220;2022-12-18T00:36:31;101050.47;;;-6.24;75.44
74905;BME280;63465;50.862;6.220;2022-12-18T00:39:00;101048.38;;;-6.33;75.63
74905;BME280;63465;50.862;6.220;2022-12-18T00:41:28;101051.81;;;-6.34;75.84
74905;BME280;63465;50.862;6.220;2022-12-18T00:44:14;101049.41;;;-6.29;75.42
74905;BME280;63465;50.862;6.220;2022-12-18T00:46:41;101050.72;;;-6.18;75.24
74905;BME280;63465;50.862;6.220;2022-12-18T00:49:09;101048.31;;;-6.13;74.50
74905;BME280;63465;50.862;6.220;2022-12-18T00:51:35;101042.47;;;-6.09;74.25
74905;BME280;63465;50.862;6.220;2022-12-18T00:54:02;101039.69;;;-6.14;74.36
74905;BME280;63465;50.862;6.220;2022-12-18T00:56:31;101029.47;;;-6.11;74.44
74905;BME280;63465;50.862;6.220;2022-12-18T00:58:58;101029.88;;;-6.22;74.46
74905;BME280;63465;50.862;6.220;2022-12-18T01:01:24;101023.16;;;-6.40;75.11
74905;BME280;63465;50.862;6.220;2022-12-18T01:03:51;101032.06;;;-6.53;76.43
74905;BME280;63465;50.862;6.220;2022-12-18T01:06:19;101036.53;;;-6.49;76.16
74905;BME280;63465;50.862;6.220;2022-12-18T01:08:46;101038.56;;;-6.41;76.27
74905;BME280;63465;50.862;6.220;2022-12-18T01:11:14;101038.56;;;-6.41;76.37
74905;BME280;63465;50.862;6.220;2022-12-18T01:13:43;101037.47;;;-6.47;76.33
74905;BME280;63465;50.862;6.220;2022-12-18T01:16:11;101032.56;;;-6.40;76.34
74905;BME280;63465;50.862;6.220;2022-12-18T01:18:39;101029.06;;;-6.42;76.41
74905;BME280;63465;50.862;6.220;2022-12-18T01:21:07;101036.97;;;-6.59;76.58
74905;BME280;63465;50.862;6.220;2022-12-18T01:23:36;101038.91;;;-6.74;77.38
74905;BME280;63465;50.862;6.220;2022-12-18T01:26:05;101030.50;;;-6.70;77.24
74905;BME280;63465;50.862;6.220;2022-12-18T01:28:34;101026.13;;;-6.71;77.26
74905;BME280;63465;50.862;6.220;2022-12-18T01:31:17;101035.78;;;-6.67;77.19
74905;BME280;63465;50.862;6.220;2022-12-18T01:33:47;101030.44;;;-6.72;77.33
74905;BME280;63465;50.862;6.220;2022-12-18T01:36:16;101026.13;;;-6.71;77.49
74905;BME280;63465;50.862;6.220;2022-12-18T01:38:43;101027.63;;;-6.57;76.62
74905;BME280;63465;50.862;6.220;2022-12-18T01:41:10;101032.31;;;-6.47;76.48
74905;BME280;63465;50.862;6.220;2022-12-18T01:43:41;101034.34;;;-6.39;76.21
74905;BME280;63465;50.862;6.220;2022-12-18T01:46:08;101030.69;;;-6.44;76.08
74905;BME280;63465;50.862;6.220;2022-12-18T01:48:38;101024.63;;;-6.45;75.93
74905;BME280;63465;50.862;6.220;2022-12-18T01:51:06;101039.69;;;-6.35;75.69
74905;BME280;63465;50.862;6.220;2022-12-18T01:53:34;101040.63;;;-6.33;75.52
74905;BME280;63465;50.862;6.220;2022-12-18T01:56:01;101049.16;;;-6.35;75.62
74905;BME280;63465;50.862;6.220;2022-12-18T01:58:35;101041.41;;;-6.35;76.09
74905;BME280;63465;50.862;6.220;2022-12-18T02:01:04;101031.19;;;-6.32;76.13
74905;BME280;63465;50.862;6.220;2022-12-18T02:03:31;101023.53;;;-6.31;76.07
74905;BME280;63465;50.862;6.220;2022-12-18T02:06:06;101020.88;;;-6.32;76.21
74905;BME280;63465;50.862;6.220;2022-12-18T02:08:41;101024.25;;;-6.33;76.45
74905;BME280;63465;50.862;6.220;2022-12-18T02:11:15;101029.19;;;-6.18;76.50
74905;BME280;63465;50.862;6.220;2022-12-18T02:13:51;101029.25;;;-6.17;76.08
74905;BME280;63465;50.862;6.220;2022-12-18T02:16:24;101028.75;;;-6.29;76.17
74905;BME280;63465;50.862;6.220;2022-12-18T02:18:58;101017.31;;;-6.13;75.35
74905;BME280;63465;50.862;6.220;2022-12-18T02:21:35;101009.38;;;-6.18;74.89
74905;BME280;63465;50.862;6.220;2022-12-18T02:24:18;101023.53;;;-6.31;75.42
74905;BME280;63465;50.862;6.220;2022-12-18T02:26:55;101022.50;;;-6.34;75.79
74905;BME280;63465;50.862;6.220;2022-12-18T02:29:26;101011.84;;;-6.21;74.73
74905;BME280;63465;50.862;6.220;2022-12-18T02:32:00;101005.50;;;-6.29;75.13
74905;BME280;63465;50.862;6.220;2022-12-18T02:34:31;100997.69;;;-6.31;75.45
74905;BME280;63465;50.862;6.220;2022-12-18T02:37:02;101004.50;;;-6.54;75.94
74905;BME280;63465;50.862;6.220;2022-12-18T02:39:34;101001.31;;;-6.47;76.34
74905;BME280;63465;50.862;6.220;2022-12-18T02:42:05;101009.91;;;-6.48;75.99
74905;BME280;63465;50.862;6.220;2022-12-18T02:44:33;101012.63;;;-6.85;76.70
74905;BME280;63465;50.862;6.220;2022-12-18T02:47:00;101020.97;;;-6.71;77.35
74905;BME280;63465;50.862;6.220;2022-12-18T02:49:34;101013.81;;;-6.36;75.98
74905;BME280;63465;50.862;6.220;2022-12-18T02:52:08;101002.72;;;-6.34;75.35
74905;BME280;63465;50.862;6.220;2022-12-18T02:54:51;101008.56;;;-6.38;75.41
74905;BME280;63465;50.862;6.220;2022-12-18T02:57:30;101010.59;;;-6.52;75.78
74905;BME280;63465;50.862;6.220;2022-12-18T03:00:04;101007.63;;;-6.61;76.02
74905;BME280;63465;50.862;6.220;2022-12-18T03:02:37;101004.22;;;-6.60;75.85
74905;BME280;63465;50.862;6.220;2022-12-18T03:05:11;100993.97;;;-6.58;75.65
74905;BME280;63465;50.862;6.220;2022-12-18T03:07:44;100993.56;;;-6.68;75.91
74905;BME280;63465;50.862;6.220;2022-12-18T03:10:16;100992.56;;;-6.71;76.15
74905;BME280;63465;50.862;6.220;2022-12-18T03:12:51;100988.66;;;-6.61;75.76
74905;BME280;63465;50.862;6.220;2022-12-18T03:15:23;100986.44;;;-6.54;75.96
74905;BME280;63465;50.862;6.220;2022-12-18T03:18:11;100982.63;;;-6.41;75.87
74905;BME280;63465;50.862;6.220;2022-12-18T03:20:41;100986.31;;;-6.57;76.34
74905;BME280;63465;50.862;6.220;2022-12-18T03:23:17;100975.63;;;-6.43;76.62
74905;BME280;63465;50.862;6.220;2022-12-18T03:25:49;100979.28;;;-6.38;76.52
74905;BME280;63465;50.862;6.220;2022-12-18T03:28:22;100968.84;;;-6.19;76.12
74905;BME280;63465;50.862;6.220;2022-12-18T03:30:57;100972.03;;;-6.26;76.00
74905;BME280;63465;50.862;6.220;2022-12-18T03:33:29;100967.16;;;-6.18;76.23
74905;BME280;63465;50.862;6.220;2022-12-18T03:35:58;100962.13;;;-6.15;75.93
74905;BME280;63465;50.862;6.220;2022-12-18T03:38:25;100954.44;;;-6.14;76.29
74905;BME280;63465;50.862;6.220;2022-12-18T03:40:59;100959.63;;;-6.35;76.71
74905;BME280;63465;50.862;6.220;2022-12-18T03:43:42;100960.47;;;-6.57;77.97
74905;BME280;63465;50.862;6.220;2022-12-18T03:46:15;100965.91;;;-6.51;77.79
74905;BME280;63465;50.862;6.220;2022-12-18T03:48:46;100958.47;;;-6.43;77.87
74905;BME280;63465;50.862;6.220;2022-12-18T03:51:19;100953.84;;;-6.29;77.51
74905;BME280;63465;50.862;6.220;2022-12-18T03:53:54;100958.34;;;-6.23;77.23
74905;BME280;63465;50.862;6.220;2022-12-18T03:56:29;100960.63;;;-6.31;77.50
74905;BME280;63465;50.862;6.220;2022-12-18T03:59:00;100953.47;;;-6.16;77.43
74905;BME280;63465;50.862;6.220;2022-12-18T04:01:32;100961.91;;;-6.42;77.85
74905;BME280;63465;50.862;6.220;2022-12-18T04:04:01;100947.94;;;-6.48;77.92
74905;BME280;63465;50.862;6.220;2022-12-18T04:06:33;100945.72;;;-6.59;78.38
74905;BME280;63465;50.862;6.220;2022-12-18T04:09:00;100941.38;;;-6.60;78.52
74905;BME280;63465;50.862;6.220;2022-12-18T04:11:29;100939.22;;;-6.50;78.28
74905;BME280;63465;50.862;6.220;2022-12-18T04:13:57;100931.91;;;-6.39;77.75
74905;BME280;63465;50.862;6.220;2022-12-18T04:16:25;100938.19;;;-6.55;77.63
74905;BME280;63465;50.862;6.220;2022-12-18T04:18:56;100940.25;;;-6.46;77.66
74905;BME280;63465;50.862;6.220;2022-12-18T04:21:24;100934.59;;;-6.58;77.86
74905;BME280;63465;50.862;6.220;2022-12-18T04:23:52;100935.47;;;-6.58;78.23
74905;BME280;63465;50.862;6.220;2022-12-18T04:26:21;100942.00;;;-6.66;77.85
74905;BME280;63465;50.862;6.220;2022-12-18T04:29:14;100938.25;;;-6.53;77.85
74905;BME280;63465;50.862;6.220;2022-12-18T04:31:43;100935.59;;;-6.55;78.12
74905;BME280;63465;50.862;6.220;2022-12-18T04:34:10;100928.50;;;-6.38;77.46
74905;BME280;63465;50.862;6.220;2022-12-18T04:36:42;100930.44;;;-6.55;77.57
74905;BME280;63465;50.862;6.220;2022-12-18T04:39:09;100931.53;;;-6.48;77.64
74905;BME280;63465;50.862;6.220;2022-12-18T04:41:36;100926.84;;;-6.58;77.84
74905;BME280;63465;50.862;6.220;2022-12-18T04:44:04;100924.28;;;-6.79;77.83
74905;BME280;63465;50.862;6.220;2022-12-18T04:46:30;100914.31;;;-6.70;77.61
74905;BME280;63465;50.862;6.220;2022-12-18T04:48:58;100928.69;;;-6.98;78.19
74905;BME280;63465;50.862;6.220;2022-12-18T04:51:25;100924.19;;;-7.02;78.12
74905;BME280;63465;50.862;6.220;2022-12-18T04:53:52;100919.00;;;-6.83;78.24
74905;BME280;63465;50.862;6.220;2022-12-18T04:56:18;100928.44;;;-7.04;78.59
74905;BME280;63465;50.862;6.220;2022-12-18T04:58:45;100917.91;;;-7.09;78.62
74905;BME280;63465;50.862;6.220;2022-12-18T05:01:14;100929.75;;;-6.93;78.25
74905;BME280;63465;50.862;6.220;2022-12-18T05:03:41;100935.91;;;-6.89;78.08
74905;BME280;63465;50.862;6.220;2022-12-18T05:06:10;100933.69;;;-6.80;77.62
74905;BME280;63465;50.862;6.220;2022-12-18T05:08:37;100936.59;;;-6.72;77.28
74905;BME280;63465;50.862;6.220;2022-12-18T05:11:05;100940.69;;;-6.77;77.18
74905;BME280;63465;50.862;6.220;2022-12-18T05:13:33;100949.78;;;-6.87;77.43
74905;BME280;63465;50.862;6.220;2022-12-18T05:16:00;100943.97;;;-7.03;76.97
74905;BME280;63465;50.862;6.220;2022-12-18T05:18:27;100951.31;;;-7.12;78.19
74905;BME280;63465;50.862;6.220;2022-12-18T05:20:54;100953.78;;;-6.94;77.75
74905;BME280;63465;50.862;6.220;2022-12-18T05:23:23;100963.78;;;-6.81;77.54
74905;BME280;63465;50.862;6.220;2022-12-18T05:25:51;100964.44;;;-6.65;76.87
74905;BME280;63465;50.862;6.220;2022-12-18T05:28:18;100964.06;;;-6.74;77.00
74905;BME280;63465;50.862;6.220;2022-12-18T05:30:47;100959.69;;;-6.75;77.23
74905;BME280;63465;50.862;6.220;2022-12-18T05:33:14;100962.53;;;-6.69;77.05
74905;BME280;63465;50.862;6.220;2022-12-18T05:35:41;100952.72;;;-6.57;76.59
74905;BME280;63465;50.862;6.220;2022-12-18T05:38:08;100957.50;;;-6.45;75.63
74905;BME280;63465;50.862;6.220;2022-12-18T05:40:36;100958.94;;;-6.52;76.00
74905;BME280;63465;50.862;6.220;2022-12-18T05:43:03;100970.03;;;-6.54;75.84
74905;BME280;63465;50.862;6.220;2022-12-18T05:45:29;100966.81;;;-6.49;75.60
74905;BME280;63465;50.862;6.220;2022-12-18T05:47:56;100968.47;;;-6.51;75.80
74905;BME280;63465;50.862;6.220;2022-12-18T05:50:22;100969.41;;;-6.49;76.06
74905;BME280;63465;50.862;6.220;2022-12-18T05:52:49;100961.97;;;-6.41;76.07
74905;BME280;63465;50.862;6.220;2022-12-18T05:55:16;100958.28;;;-6.48;76.44
74905;BME280;63465;50.862;6.220;2022-12-18T05:57:44;100954.53;;;-6.33;75.98
74905;BME280;63465;50.862;6.220;2022-12-18T06:00:12;100954.41;;;-6.36;76.41
74905;BME280;63465;50.862;6.220;2022-12-18T06:02:39;100946.34;;;-6.44;77.29
74905;BME280;63465;50.862;6.220;2022-12-18T06:05:06;100954.97;;;-6.43;77.53
74905;BME280;63465;50.862;6.220;2022-12-18T06:07:32;100948.06;;;-6.44;77.58
74905;BME280;63465;50.862;6.220;2022-12-18T06:09:59;100958.50;;;-6.41;77.61
74905;BME280;63465;50.862;6.220;2022-12-18T06:12:26;100959.31;;;-6.42;77.77
74905;BME280;63465;50.862;6.220;2022-12-18T06:14:54;100950.94;;;-6.37;77.61
74905;BME280;63465;50.862;6.220;2022-12-18T06:17:20;100951.13;;;-6.32;77.61
74905;BME280;63465;50.862;6.220;2022-12-18T06:19:47;100945.34;;;-6.25;77.45
74905;BME280;63465;50.862;6.220;2022-12-18T06:22:14;100954.19;;;-6.20;76.93
74905;BME280;63465;50.862;6.220;2022-12-18T06:24:40;100954.00;;;-6.24;76.68
74905;BME280;63465;50.862;6.220;2022-12-18T06:27:07;100937.38;;;-6.31;77.10
74905;BME280;63465;50.862;6.220;2022-12-18T06:29:34;100948.78;;;-6.26;77.00
74905;BME280;63465;50.862;6.220;2022-12-18T06:32:02;100931.50;;;-6.27;76.94
74905;BME280;63465;50.862;6.220;2022-12-18T06:34:32;100938.34;;;-6.29;77.04
74905;BME280;63465;50.862;6.220;2022-12-18T06:36:59;100953.41;;;-6.40;77.26
74905;BME280;63465;50.862;6.220;2022-12-18T06:39:27;100940.81;;;-6.32;76.86
74905;BME280;63465;50.862;6.220;2022-12-18T06:41:53;100932.16;;;-6.33;76.84
74905;BME280;63465;50.862;6.220;2022-12-18T06:44:20;100941.59;;;-6.33;76.89
74905;BME280;63465;50.862;6.220;2022-12-18T06:46:47;100936.44;;;-6.33;76.84
74905;BME280;63465;50.862;6.220;2022-12-18T06:49:15;100943.06;;;-6.40;77.76
74905;BME280;63465;50.862;6.220;2022-12-18T06:51:42;100937.44;;;-6.30;76.94
74905;BME280;63465;50.862;6.220;2022-12-18T06:54:09;100942.47;;;-6.33;77.32
74905;BME280;63465;50.862;6.220;2022-12-18T06:56:35;100951.38;;;-6.26;77.14
74905;BME280;63465;50.862;6.220;2022-12-18T06:59:02;100947.66;;;-6.33;77.54
74905;BME280;63465;50.862;6.220;2022-12-18T07:01:29;100946.22;;;-6.26;77.06
74905;BME280;63465;50.862;6.220;2022-12-18T07:03:56;100948.19;;;-6.19;76.92
74905;BME280;63465;50.862;6.220;2022-12-18T07:06:25;100938.81;;;-6.17;76.56
74905;BME280;63465;50.862;6.220;2022-12-18T07:08:53;100936.88;;;-6.22;76.88
74905;BME280;63465;50.862;6.220;2022-12-18T07:11:20;100941.16;;;-6.23;76.78
74905;BME280;63465;50.862;6.220;2022-12-18T07:13:47;100930.34;;;-6.13;76.70
74905;BME280;63465;50.862;6.220;2022-12-18T07:16:15;100926.81;;;-6.15;76.99
74905;BME280;63465;50.862;6.220;2022-12-18T07:18:43;100931.69;;;-6.22;77.18
74905;BME280;63465;50.862;6.220;2022-12-18T07:21:11;100922.34;;;-6.19;77.04
74905;BME280;63465;50.862;6.220;2022-12-18T07:23:39;100938.16;;;-6.11;77.27
74905;BME280;63465;50.862;6.220;2022-12-18T07:26:08;100938.44;;;-6.03;77.29
74905;BME280;63465;50.862;6.220;2022-12-18T07:28:36;100941.44;;;-5.93;76.70
74905;BME280;63465;50.862;6.220;2022-12-18T07:31:03;100946.50;;;-5.94;76.69
74905;BME280;63465;50.862;6.220;2022-12-18T07:33:31;100932.63;;;-5.98;76.79
74905;BME280;63465;50.862;6.220;2022-12-18T07:35:58;100932.72;;;-5.95;77.04
74905;BME280;63465;50.862;6.220;2022-12-18T07:38:25;100920.81;;;-5.91;76.87
74905;BME280;63465;50.862;6.220;2022-12-18T07:40:53;100907.88;;;-5.91;76.76
74905;BME280;63465;50.862;6.220;2022-12-18T07:43:20;100905.97;;;-5.97;76.98
74905;BME280;63465;50.862;6.220;2022-12-18T07:45:49;100901.97;;;-5.87;76.59
74905;BME280;63465;50.862;6.220;2022-12-18T07:48:15;100893.88;;;-5.98;76.80
74905;BME280;63465;50.862;6.220;2022-12-18T07:50:42;100892.53;;;-5.86;76.55
74905;BME280;63465;50.862;6.220;2022-12-18T07:53:09;100895.19;;;-5.85;76.59
74905;BME280;63465;50.862;6.220;2022-12-18T07:55:35;100890.50;;;-5.95;76.55
74905;BME280;63465;50.862;6.220;2022-12-18T07:58:04;100873.22;;;-5.96;76.49
74905;BME280;63465;50.862;6.220;2022-12-18T08:00:30;100872.84;;;-5.83;76.33
74905;BME280;63465;50.862;6.220;2022-12-18T08:02:57;100867.47;;;-5.89;76.73
74905;BME280;63465;50.862;6.220;2022-12-18T08:05:24;100872.25;;;-5.76;76.44
74905;BME280;63465;50.862;6.220;2022-12-18T08:07:51;100862.94;;;-5.70;76.20
74905;BME280;63465;50.862;6.220;2022-12-18T08:10:18;100850.94;;;-5.68;76.26
74905;BME280;63465;50.862;6.220;2022-12-18T08:12:45;100851.09;;;-5.64;76.43
74905;BME280;63465;50.862;6.220;2022-12-18T08:15:13;100856.44;;;-5.59;76.32
74905;BME280;63465;50.862;6.220;2022-12-18T08:17:40;100862.72;;;-5.52;75.78
74905;BME280;63465;50.862;6.220;2022-12-18T08:20:07;100860.13;;;-5.52;75.72
74905;BME280;63465;50.862;6.220;2022-12-18T08:22:34;100846.06;;;-5.35;76.11
74905;BME280;63465;50.862;6.220;2022-12-18T08:25:02;100857.94;;;-5.16;75.65
74905;BME280;63465;50.862;6.220;2022-12-18T08:27:29;100844.28;;;-5.10;75.50
74905;BME280;63465;50.862;6.220;2022-12-18T08:29:55;100842.72;;;-5.07;75.08
74905;BME280;63465;50.862;6.220;2022-12-18T08:32:24;100855.66;;;-5.07;75.62
74905;BME280;63465;50.862;6.220;2022-12-18T08:34:51;100853.06;;;-5.07;75.77
74905;BME280;63465;50.862;6.220;2022-12-18T08:37:18;100847.28;;;-4.98;75.68
74905;BME280;63465;50.862;6.220;2022-12-18T08:39:44;100839.84;;;-4.87;75.12
74905;BME280;63465;50.862;6.220;2022-12-18T08:42:11;100838.59;;;-4.73;74.95
74905;BME280;63465;50.862;6.220;2022-12-18T08:44:55;100836.31;;;-4.63;75.18
74905;BME280;63465;50.862;6.220;2022-12-18T08:47:23;100839.09;;;-4.57;75.01
74905;BME280;63465;50.862;6.220;2022-12-18T08:49:51;100840.50;;;-4.38;74.43
74905;BME280;63465;50.862;6.220;2022-12-18T08:52:18;100848.78;;;-4.21;74.27
74905;BME280;63465;50.862;6.220;2022-12-18T08:54:44;100849.78;;;-4.18;74.31
74905;BME280;63465;50.862;6.220;2022-12-18T08:57:11;100846.94;;;-4.25;74.21
74905;BME280;63465;50.862;6.220;2022-12-18T08:59:38;100849.78;;;-4.18;74.13
74905;BME280;63465;50.862;6.220;2022-12-18T09:02:04;100846.28;;;-4.18;74.26
74905;BME280;63465;50.862;6.220;2022-12-18T09:04:32;100843.78;;;-4.15;74.34
74905;BME280;63465;50.862;6.220;2022-12-18T09:06:59;100838.16;;;-4.00;74.30
74905;BME280;63465;50.862;6.220;2022-12-18T09:09:26;100836.41;;;-4.01;73.85
74905;BME280;63465;50.862;6.220;2022-12-18T09:11:52;100825.47;;;-3.91;73.13
74905;BME280;63465;50.862;6.220;2022-12-18T09:14:19;100812.31;;;-3.97;73.01
74905;BME280;63465;50.862;6.220;2022-12-18T09:16:45;100816.44;;;-3.73;73.39
74905;BME280;63465;50.862;6.220;2022-12-18T09:19:12;100807.25;;;-3.61;73.48
74905;BME280;63465;50.862;6.220;2022-12-18T09:21:40;100812.22;;;-3.36;72.47
74905;BME280;63465;50.862;6.220;2022-12-18T09:24:12;100804.66;;;-3.27;72.30
74905;BME280;63465;50.862;6.220;2022-12-18T09:26:39;100797.38;;;-3.07;71.88
74905;BME280;63465;50.862;6.220;2022-12-18T09:29:06;100803.31;;;-3.11;72.16
74905;BME280;63465;50.862;6.220;2022-12-18T09:31:34;100803.75;;;-2.93;71.85
74905;BME280;63465;50.862;6.220;2022-12-18T09:34:01;100790.06;;;-2.85;71.95
74905;BME280;63465;50.862;6.220;2022-12-18T09:36:30;100803.25;;;-2.78;71.85
74905;BME280;63465;50.862;6.220;2022-12-18T09:38:58;100793.13;;;-2.65;71.48
74905;BME280;63465;50.862;6.220;2022-12-18T09:41:36;100802.69;;;-2.64;71.39
74905;BME280;63465;50.862;6.220;2022-12-18T09:44:12;100799.09;;;-2.70;71.58
74905;BME280;63465;50.862;6.220;2022-12-18T09:46:44;100798.13;;;-2.35;70.33
74905;BME280;63465;50.862;6.220;2022-12-18T09:49:14;100795.50;;;-2.37;70.96
74905;BME280;63465;50.862;6.220;2022-12-18T09:51:45;100794.84;;;-2.26;70.20
74905;BME280;63465;50.862;6.220;2022-12-18T09:54:19;100800.56;;;-2.43;70.63
74905;BME280;63465;50.862;6.220;2022-12-18T09:56:47;100785.13;;;-2.35;70.94
74905;BME280;63465;50.862;6.220;2022-12-18T09:59:20;100780.69;;;-2.39;70.65
74905;BME280;63465;50.862;6.220;2022-12-18T10:01:47;100773.03;;;-2.33;71.01
74905;BME280;63465;50.862;6.220;2022-12-18T10:04:14;100773.00;;;-2.35;71.34
74905;BME280;63465;50.862;6.220;2022-12-18T10:06:46;100766.34;;;-2.22;70.99
74905;BME280;63465;50.862;6.220;2022-12-18T10:09:23;100785.59;;;-2.12;70.40
74905;BME280;63465;50.862;6.220;2022-12-18T10:12:00;100786.66;;;-2.02;70.35
74905;BME280;63465;50.862;6.220;2022-12-18T10:14:35;100772.34;;;-1.80;69.45
74905;BME280;63465;50.862;6.220;2022-12-18T10:17:10;100778.59;;;-1.70;69.51
74905;BME280;63465;50.862;6.220;2022-12-18T10:19:41;100775.25;;;-1.63;68.74
74905;BME280;63465;50.862;6.220;2022-12-18T10:22:32;100767.41;;;-1.65;69.56
74905;BME280;63465;50.862;6.220;2022-12-18T10:25:15;100766.81;;;-1.50;69.13
74905;BME280;63465;50.862;6.220;2022-12-18T10:27:44;100772.88;;;-1.49;68.84
74905;BME280;63465;50.862;6.220;2022-12-18T10:30:13;100766.19;;;-1.33;69.23
74905;BME280;63465;50.862;6.220;2022-12-18T10:32:41;100757.16;;;-1.03;67.83
74905;BME280;63465;50.862;6.220;2022-12-18T10:35:15;100757.06;;;-1.08;67.73
74905;BME280;63465;50.862;6.220;2022-12-18T10:37:59;100761.69;;;-0.92;67.41
74905;BME280;63465;50.862;6.220;2022-12-18T10:40:28;100771.34;;;-1.36;69.35
74905;BME280;63465;50.862;6.220;2022-12-18T10:43:04;100772.50;;;-1.20;69.39
74905;BME280;63465;50.862;6.220;2022-12-18T10:45:30;100776.13;;;-1.11;68.94
74905;BME280;63465;50.862;6.220;2022-12-18T10:47:57;100779.50;;;-0.61;67.98
74905;BME280;63465;50.862;6.220;2022-12-18T10:50:28;100765.03;;;-0.38;67.29
74905;BME280;63465;50.862;6.220;2022-12-18T10:52:57;100763.09;;;0.23;65.19
74905;BME280;63465;50.862;6.220;2022-12-18T10:55:30;100764.19;;;0.42;64.19
74905;BME280;63465;50.862;6.220;2022-12-18T10:58:13;100757.19;;;0.41;64.14
74905;BME280;63465;50.862;6.220;2022-12-18T11:00:43;100770.53;;;-0.13;65.87
74905;BME280;63465;50.862;6.220;2022-12-18T11:03:30;100758.41;;;-0.08;65.81
74905;BME280;63465;50.862;6.220;2022-12-18T11:06:06;100732.31;;;-0.08;66.02
74905;BME280;63465;50.862;6.220;2022-12-18T11:08:33;100746.06;;;-0.26;67.41
74905;BME280;63465;50.862;6.220;2022-12-18T11:11:01;100746.06;;;-0.26;67.60
74905;BME280;63465;50.862;6.220;2022-12-18T11:13:30;100739.88;;;-0.31;67.83
74905;BME280;63465;50.862;6.220;2022-12-18T11:15:57;100739.63;;;-0.51;68.37
74905;BME280;63465;50.862;6.220;2022-12-18T11:18:27;100731.03;;;-0.45;67.92
74905;BME280;63465;50.862;6.220;2022-12-18T11:20:56;100723.06;;;-0.56;68.17
74905;BME280;63465;50.862;6.220;2022-12-18T11:23:24;100719.75;;;-0.43;68.28
74905;BME280;63465;50.862;6.220;2022-12-18T11:25:54;100714.06;;;-0.80;68.98
74905;BME280;63465;50.862;6.220;2022-12-18T11:28:29;100709.34;;;-0.43;68.44
74905;BME280;63465;50.862;6.220;2022-12-18T11:33:59;100710.94;;;-0.51;68.55
74905;BME280;63465;50.862;6.220;2022-12-18T11:36:31;100706.75;;;-0.40;68.22
74905;BME280;63465;50.862;6.220;2022-12-18T11:39:01;100704.84;;;-0.55;68.65
74905;BME280;63465;50.862;6.220;2022-12-18T11:41:32;100695.50;;;-0.36;68.19
74905;BME280;63465;50.862;6.220;2022-12-18T11:44:24;100698.88;;;-0.46;67.75
74905;BME280;63465;50.862;6.220;2022-12-18T11:46:53;100691.94;;;-0.44;67.10
74905;BME280;63465;50.862;6.220;2022-12-18T11:49:25;100687.50;;;-0.51;67.04
74905;BME280;63465;50.862;6.220;2022-12-18T11:51:56;100684.84;;;-0.54;67.41
74905;BME280;63465;50.862;6.220;2022-12-18T11:54:26;100678.81;;;-0.51;67.46
74905;BME280;63465;50.862;6.220;2022-12-18T11:56:56;100683.19;;;-0.49;67.86
74905;BME280;63465;50.862;6.220;2022-12-18T11:59:33;100690.94;;;-0.55;67.53
74905;BME280;63465;50.862;6.220;2022-12-18T12:02:16;100688.41;;;-0.47;67.58
74905;BME280;63465;50.862;6.220;2022-12-18T12:04:56;100677.28;;;-0.32;67.25
74905;BME280;63465;50.862;6.220;2022-12-18T12:07:38;100680.75;;;-0.33;66.81
74905;BME280;63465;50.862;6.220;2022-12-18T12:10:21;100674.63;;;-0.36;67.24
74905;BME280;63465;50.862;6.220;2022-12-18T12:13:03;100670.19;;;-0.46;68.17
74905;BME280;63465;50.862;6.220;2022-12-18T12:15:46;100668.50;;;-0.41;67.17
74905;BME280;63465;50.862;6.220;2022-12-18T12:18:28;100663.28;;;-0.41;67.86
74905;BME280;63465;50.862;6.220;2022-12-18T12:21:03;100655.53;;;-0.34;67.82
74905;BME280;63465;50.862;6.220;2022-12-18T12:23:39;100659.84;;;-0.38;68.44
74905;BME280;63465;50.862;6.220;2022-12-18T12:26:11;100660.94;;;-0.16;67.44
74905;BME280;63465;50.862;6.220;2022-12-18T12:29:01;100662.84;;;0.01;66.84
74905;BME280;63465;50.862;6.220;2022-12-18T12:31:47;100667.31;;;0.11;66.87
74905;BME280;63465;50.862;6.220;2022-12-18T12:34:22;100665.41;;;-0.04;67.29
74905;BME280;63465;50.862;6.220;2022-12-18T12:37:11;100648.97;;;0.05;67.19
74905;BME280;63465;50.862;6.220;2022-12-18T12:39:44;100651.59;;;0.05;67.01
74905;BME280;63465;50.862;6.220;2022-12-18T12:42:16;100636.69;;;-0.06;68.06
74905;BME280;63465;50.862;6.220;2022-12-18T12:45:05;100636.66;;;-0.10;68.26
74905;BME280;63465;50.862;6.220;2022-12-18T12:47:37;100633.09;;;-0.15;69.09
74905;BME280;63465;50.862;6.220;2022-12-18T12:50:13;100620.25;;;0.02;69.27
74905;BME280;63465;50.862;6.220;2022-12-18T12:52:43;100619.34;;;0.01;69.04
74905;BME280;63465;50.862;6.220;2022-12-18T12:55:16;100617.56;;;-0.05;69.47
74905;BME280;63465;50.862;6.220;2022-12-18T12:57:47;100614.13;;;-0.01;69.21
74905;BME280;63465;50.862;6.220;2022-12-18T13:00:18;100609.75;;;-0.02;69.71
74905;BME280;63465;50.862;6.220;2022-12-18T13:02:51;100605.44;;;-0.01;69.72
74905;BME280;63465;50.862;6.220;2022-12-18T13:05:25;100612.44;;;0.05;68.95
74905;BME280;63465;50.862;6.220;2022-12-18T13:07:57;100604.44;;;-0.11;69.44
74905;BME280;63465;50.862;6.220;2022-12-18T13:10:31;100602.75;;;-0.09;69.39